Time;durP1;ratioP1;P1;durP2;ratioP2;P2;SDS_P1;SDS_P2;PMS_P1;PMS_P2;Temp;Humidity;BMP_temperature;BMP_pressure;BME280_temperature;BME280_humidity;BME280_pressure;Samples;Min_cycle;Max_cycle;Signal;HPM_P1;HPM_P2
2022/01/07 00:01:57;;;;;;;8.5;4.1;;;;;;;;;;;;;
2022/01/07 00:04:22;;;;;;;6.4;3.6;;;;;;;;;;;;;
2022/01/07 00:06:47;;;;;;;12.1;5.9;;;;;;;;;;;;;
2022/01/07 00:09:12;;;;;;;8.9;3.7;;;;;;;;;;;;;
2022/01/07 00:11:38;;;;;;;13.7;6;;;;;;;;;;;;;
2022/01/07 00:14:03;;;;;;;25.4;9.3;;;;;;;;;;;;;
2022/01/07 00:16:29;;;;;;;7.9;4.4;;;;;;;;;;;;;
2022/01/07 00:18:56;;;;;;;6.5;3.1;;;;;;;;;;;;;
2022/01/07 00:21:20;;;;;;;5;2.5;;;;;;;;;;;;;
2022/01/07 00:23:46;;;;;;;6.1;2.2;;;;;;;;;;;;;
2022/01/07 00:26:12;;;;;;;5.3;2.5;;;;;;;;;;;;;
2022/01/07 00:28:37;;;;;;;3.6;2.1;;;;;;;;;;;;;
2022/01/07 00:31:03;;;;;;;4.3;2.5;;;;;;;;;;;;;
2022/01/07 00:33:28;;;;;;;4.2;2.4;;;;;;;;;;;;;
2022/01/07 00:35:56;;;;;;;10.3;5.2;;;;;;;;;;;;;
2022/01/07 00:38:18;;;;;;;5.4;2.8;;;;;;;;;;;;;
2022/01/07 00:40:44;;;;;;;9;4.4;;;;;;;;;;;;;
2022/01/07 00:43:10;;;;;;;5.1;2.9;;;;;;;;;;;;;
2022/01/07 00:45:36;;;;;;;5.3;2.7;;;;;;;;;;;;;
2022/01/07 00:48:01;;;;;;;6.3;2.4;;;;;;;;;;;;;
2022/01/07 00:50:28;;;;;;;5.2;2.8;;;;;;;;;;;;;
2022/01/07 00:52:53;;;;;;;4.1;2.4;;;;;;;;;;;;;
2022/01/07 00:55:18;;;;;;;4.4;2.5;;;;;;;;;;;;;
2022/01/07 00:57:43;;;;;;;4.7;2.7;;;;;;;;;;;;;
2022/01/07 01:00:12;;;;;;;3.7;2.8;;;;;;;;;;;;;
2022/01/07 01:02:37;;;;;;;3.4;2.1;;;;;;;;;;;;;
2022/01/07 01:05:02;;;;;;;3.1;1.8;;;;;;;;;;;;;
2022/01/07 01:07:29;;;;;;;3.9;2.3;;;;;;;;;;;;;
2022/01/07 01:09:53;;;;;;;2.7;2;;;;;;;;;;;;;
2022/01/07 01:12:18;;;;;;;5.7;2.2;;;;;;;;;;;;;
2022/01/07 01:14:44;;;;;;;5;2.4;;;;;;;;;;;;;
2022/01/07 01:17:09;;;;;;;4.4;2.4;;;;;;;;;;;;;
2022/01/07 01:19:36;;;;;;;8.6;3.6;;;;;;;;;;;;;
2022/01/07 01:22:01;;;;;;;6.6;3.7;;;;;;;;;;;;;
2022/01/07 01:24:27;;;;;;;5.5;2.9;;;;;;;;;;;;;
2022/01/07 01:26:52;;;;;;;4.8;2.6;;;;;;;;;;;;;
2022/01/07 01:29:20;;;;;;;5.7;2.8;;;;;;;;;;;;;
2022/01/07 01:31:44;;;;;;;4.7;2.5;;;;;;;;;;;;;
2022/01/07 01:34:09;;;;;;;5.2;2.6;;;;;;;;;;;;;
2022/01/07 01:36:34;;;;;;;4.7;2.5;;;;;;;;;;;;;
2022/01/07 01:39:01;;;;;;;5.7;2.7;;;;;;;;;;;;;
2022/01/07 01:41:25;;;;;;;5.3;2.6;;;;;;;;;;;;;
2022/01/07 01:43:53;;;;;;;4.1;2.4;;;;;;;;;;;;;
2022/01/07 01:46:18;;;;;;;5.5;2.8;;;;;;;;;;;;;
2022/01/07 01:48:44;;;;;;;4.9;2.5;;;;;;;;;;;;;
2022/01/07 01:51:09;;;;;;;4.4;2.3;;;;;;;;;;;;;
2022/01/07 01:53:35;;;;;;;4.2;2.2;;;;;;;;;;;;;
2022/01/07 01:56:00;;;;;;;3;1.8;;;;;;;;;;;;;
2022/01/07 01:58:26;;;;;;;4.1;2.4;;;;;;;;;;;;;
2022/01/07 02:00:51;;;;;;;8.7;4;;;;;;;;;;;;;
2022/01/07 02:03:17;;;;;;;16.2;6.5;;;;;;;;;;;;;
2022/01/07 02:05:42;;;;;;;13.2;5.1;;;;;;;;;;;;;
2022/01/07 02:08:08;;;;;;;4.6;2.4;;;;;;;;;;;;;
2022/01/07 02:10:33;;;;;;;4;2.1;;;;;;;;;;;;;
2022/01/07 02:12:59;;;;;;;3.9;2.1;;;;;;;;;;;;;
2022/01/07 02:15:24;;;;;;;4.3;2.3;;;;;;;;;;;;;
2022/01/07 02:17:49;;;;;;;4.1;2.4;;;;;;;;;;;;;
2022/01/07 02:20:14;;;;;;;3.5;1.9;;;;;;;;;;;;;
2022/01/07 02:22:40;;;;;;;3.7;1.9;;;;;;;;;;;;;
2022/01/07 02:25:06;;;;;;;3.1;2;;;;;;;;;;;;;
2022/01/07 02:27:32;;;;;;;3.7;2.1;;;;;;;;;;;;;
2022/01/07 02:29:58;;;;;;;2.9;1.8;;;;;;;;;;;;;
2022/01/07 02:32:23;;;;;;;5.2;2.3;;;;;;;;;;;;;
2022/01/07 02:34:48;;;;;;;4.9;2.1;;;;;;;;;;;;;
2022/01/07 02:37:14;;;;;;;3.1;1.9;;;;;;;;;;;;;
2022/01/07 02:39:39;;;;;;;3.5;2;;;;;;;;;;;;;
2022/01/07 02:42:05;;;;;;;3.3;2.1;;;;;;;;;;;;;
2022/01/07 02:44:30;;;;;;;4.1;1.6;;;;;;;;;;;;;
2022/01/07 02:46:57;;;;;;;2.5;1.7;;;;;;;;;;;;;
2022/01/07 02:49:22;;;;;;;2.8;1.6;;;;;;;;;;;;;
2022/01/07 02:51:47;;;;;;;3;1.6;;;;;;;;;;;;;
2022/01/07 02:54:13;;;;;;;2.1;1.3;;;;;;;;;;;;;
2022/01/07 02:56:39;;;;;;;2.4;1.7;;;;;;;;;;;;;
2022/01/07 02:59:04;;;;;;;4;1.7;;;;;;;;;;;;;
2022/01/07 03:01:31;;;;;;;2.5;1.5;;;;;;;;;;;;;
2022/01/07 03:03:56;;;;;;;3.4;1.7;;;;;;;;;;;;;
2022/01/07 03:06:22;;;;;;;2.8;1.5;;;;;;;;;;;;;
2022/01/07 03:08:47;;;;;;;2.5;1.2;;;;;;;;;;;;;
2022/01/07 03:11:13;;;;;;;2.8;1.4;;;;;;;;;;;;;
2022/01/07 03:13:38;;;;;;;3.7;1.5;;;;;;;;;;;;;
2022/01/07 03:16:04;;;;;;;2.7;1.5;;;;;;;;;;;;;
2022/01/07 03:18:30;;;;;;;2.3;1.5;;;;;;;;;;;;;
2022/01/07 03:20:58;;;;;;;2.5;1.4;;;;;;;;;;;;;
2022/01/07 03:23:21;;;;;;;2.5;1.3;;;;;;;;;;;;;
2022/01/07 03:25:49;;;;;;;1.7;1.2;;;;;;;;;;;;;
2022/01/07 03:28:14;;;;;;;2.3;1.3;;;;;;;;;;;;;
2022/01/07 03:30:40;;;;;;;3.8;1.9;;;;;;;;;;;;;
2022/01/07 03:33:05;;;;;;;3.8;2.1;;;;;;;;;;;;;
2022/01/07 03:35:30;;;;;;;4.3;2;;;;;;;;;;;;;
2022/01/07 03:37:55;;;;;;;4.5;2.2;;;;;;;;;;;;;
2022/01/07 03:40:23;;;;;;;3.9;1.9;;;;;;;;;;;;;
2022/01/07 03:42:48;;;;;;;3.7;2;;;;;;;;;;;;;
2022/01/07 03:45:14;;;;;;;4.2;2.1;;;;;;;;;;;;;
2022/01/07 03:47:39;;;;;;;4.1;2.3;;;;;;;;;;;;;
2022/01/07 03:50:06;;;;;;;58.8;35.1;;;;;;;;;;;;;
2022/01/07 03:52:30;;;;;;;7.1;3.9;;;;;;;;;;;;;
2022/01/07 03:54:54;;;;;;;7.4;4;;;;;;;;;;;;;
2022/01/07 03:57:19;;;;;;;3.5;2.8;;;;;;;;;;;;;
2022/01/07 03:59:47;;;;;;;4.3;1.8;;;;;;;;;;;;;
2022/01/07 04:02:36;;;;;;;2.7;1.6;;;;;;;-5.21;89.28125;939.1705;;;;
2022/01/07 04:05:02;;;;;;;8.7;7.8;;;;;;;-5.14;89.625;939.1302;;;;
2022/01/07 04:07:30;;;;;;;2.4;1.6;;;;;;;-5.28;89.83789;939.075;;;;
2022/01/07 04:09:52;;;;;;;3.3;1.5;;;;;;;-5.32;90.25684;938.9439;;;;
2022/01/07 04:12:22;;;;;;;2.6;1.5;;;;;;;-5.29;90.37305;938.9528;;;;
2022/01/07 04:15:03;;;;;;;3;1.5;;;;;;;-5.28;90.24316;939.0616;;;;
2022/01/07 04:17:25;;;;;;;24.4;5.6;;;;;;;-5.41;90.14941;939.0391;;;;
2022/01/07 04:19:55;;;;;;;7.5;3.1;;;;;;;-5.49;90.30762;939.0076;;;;
2022/01/07 04:22:20;;;;;;;3;1.3;;;;;;;-5.47;90.29199;939.1175;;;;
2022/01/07 04:24:50;;;;;;;2.2;1.3;;;;;;;-5.28;91.04785;939.0547;;;;
2022/01/07 04:27:19;;;;;;;2.8;1.6;;;;;;;-4.87;90.29785;938.9888;;;;
2022/01/07 04:29:50;;;;;;;2;1.4;;;;;;;-4.86;89.58594;938.9734;;;;
2022/01/07 04:32:16;;;;;;;3.9;1.5;;;;;;;-4.98;89.69336;938.9934;;;;
2022/01/07 04:34:45;;;;;;;2;1.5;;;;;;;-5.05;89.80957;938.8967;;;;
2022/01/07 04:37:10;;;;;;;2.9;1.6;;;;;;;-5.11;90.09473;938.9547;;;;
2022/01/07 04:39:39;;;;;;;2.4;2;;;;;;;-5.08;89.90234;938.8972;;;;
2022/01/07 04:42:04;;;;;;;1.9;1.6;;;;;;;-5.14;89.50586;938.9995;;;;
2022/01/07 04:44:35;;;;;;;3.7;2.1;;;;;;;-5.24;89.73535;938.9315;;;;
2022/01/07 04:47:28;;;;;;;4.2;2.3;;;;;;;-5.37;90.25781;938.9994;;;;
2022/01/07 04:49:50;;;;;;;6.1;2.8;;;;;;;-5.4;90.58203;938.9785;;;;
2022/01/07 04:52:21;;;;;;;3.9;2.4;;;;;;;-5.36;90.33691;939.0687;;;;
2022/01/07 04:54:43;;;;;;;3.6;2.1;;;;;;;-5.43;90.39648;938.981;;;;
2022/01/07 04:57:10;;;;;;;3.3;2;;;;;;;-5.48;90.59766;939.0966;;;;
2022/01/07 04:59:35;;;;;;;3.3;2;;;;;;;-5.53;91.02734;939.1453;;;;
2022/01/07 05:02:02;;;;;;;3.5;2.5;;;;;;;-5.48;91.24609;939.1758;;;;
2022/01/07 05:04:27;;;;;;;2.8;2.4;;;;;;;-5.48;91.18945;939.1899;;;;
2022/01/07 05:06:55;;;;;;;3;2.2;;;;;;;-5.43;90.9375;939.2271;;;;
2022/01/07 05:09:20;;;;;;;3.5;1.9;;;;;;;-5.44;90.99023;939.0681;;;;
2022/01/07 05:11:50;;;;;;;3.9;2.4;;;;;;;-5.43;91.11523;939.1948;;;;
2022/01/07 05:14:15;;;;;;;3.8;2.4;;;;;;;-5.49;90.92578;939.2972;;;;
2022/01/07 05:16:40;;;;;;;3.6;2.2;;;;;;;-5.56;90.87695;939.2244;;;;
2022/01/07 05:19:06;;;;;;;2.2;2;;;;;;;-5.59;90.41797;939.2332;;;;
2022/01/07 05:21:31;;;;;;;2.7;1.8;;;;;;;-5.63;90.22363;939.2067;;;;
2022/01/07 05:23:58;;;;;;;3.9;2;;;;;;;-5.6;90.25098;939.1414;;;;
2022/01/07 05:26:23;;;;;;;4;1.9;;;;;;;-5.51;90.0625;939.1252;;;;
2022/01/07 05:28:53;;;;;;;4.5;2;;;;;;;-5.59;89.59375;939.1272;;;;
2022/01/07 05:31:18;;;;;;;3.9;1.9;;;;;;;-5.62;89.74219;939.0998;;;;
2022/01/07 05:33:43;;;;;;;4.3;2.2;;;;;;;-5.6;89.6582;939.0148;;;;
2022/01/07 05:36:14;;;;;;;4.3;2.5;;;;;;;-5.6;89.84668;938.9811;;;;
2022/01/07 05:38:43;;;;;;;4.5;2.8;;;;;;;-5.58;89.82813;938.9236;;;;
2022/01/07 05:41:08;;;;;;;8.9;4;;;;;;;-5.62;89.9502;939.0078;;;;
2022/01/07 05:43:37;;;;;;;8.8;4.1;;;;;;;-5.61;89.99414;939.0603;;;;
2022/01/07 05:46:02;;;;;;;10.8;5.3;;;;;;;-5.64;89.48535;938.9702;;;;
2022/01/07 05:48:32;;;;;;;15.2;5.7;;;;;;;-5.6;89.57227;939.0167;;;;
2022/01/07 05:50:56;;;;;;;11.9;5.7;;;;;;;-5.59;89.47461;939.0168;;;;
2022/01/07 05:53:24;;;;;;;8.4;4.3;;;;;;;-5.54;89.04492;939.075;;;;
2022/01/07 05:55:49;;;;;;;7.4;3.9;;;;;;;-5.67;89.875;939.0692;;;;
2022/01/07 05:58:16;;;;;;;3.6;2.4;;;;;;;-5.59;89.85938;939.1223;;;;
2022/01/07 06:00:41;;;;;;;8.5;6.3;;;;;;;-5.59;89.76953;939.0435;;;;
2022/01/07 06:03:10;;;;;;;8.5;6.5;;;;;;;-5.6;89.68164;939.0478;;;;
2022/01/07 06:05:39;;;;;;;7.1;5.4;;;;;;;-5.64;89.82617;939.1786;;;;
2022/01/07 06:08:04;;;;;;;6.4;3.6;;;;;;;-5.54;89.84766;939.2481;;;;
2022/01/07 06:10:33;;;;;;;3.3;2.6;;;;;;;-5.56;89.60156;939.2129;;;;
2022/01/07 06:13:03;;;;;;;4.4;2.8;;;;;;;-5.41;89.12695;939.1948;;;;
2022/01/07 06:15:28;;;;;;;4.5;2.8;;;;;;;-5.4;88.82129;939.2325;;;;
2022/01/07 06:18:03;;;;;;;4.4;2.7;;;;;;;-5.37;88.61035;939.1838;;;;
2022/01/07 06:20:28;;;;;;;5.4;2.5;;;;;;;-5.25;87.96094;939.2117;;;;
2022/01/07 06:22:56;;;;;;;6.9;3.2;;;;;;;-5.25;87.39063;939.1847;;;;
2022/01/07 06:25:21;;;;;;;7.1;4;;;;;;;-5.26;87.74023;939.1147;;;;
2022/01/07 06:27:49;;;;;;;6.2;3.8;;;;;;;-5.19;87.68945;939.1603;;;;
2022/01/07 06:30:14;;;;;;;9.7;4.5;;;;;;;-5.37;88.24609;939.1716;;;;
2022/01/07 06:32:42;;;;;;;10;4.7;;;;;;;-5.48;89.0127;939.1878;;;;
2022/01/07 06:35:09;;;;;;;7.9;4.1;;;;;;;-5.46;89.08398;939.2455;;;;
2022/01/07 06:37:35;;;;;;;13;5.8;;;;;;;-5.41;88.96387;939.2614;;;;
2022/01/07 06:40:01;;;;;;;19;9;;;;;;;-5.55;88.625;939.262;;;;
2022/01/07 06:42:29;;;;;;;35.1;15.9;;;;;;;-5.56;89.16016;939.2411;;;;
2022/01/07 06:44:54;;;;;;;32.1;14.7;;;;;;;-5.53;89.51074;939.2461;;;;
2022/01/07 06:47:24;;;;;;;26.5;12.6;;;;;;;-5.37;89.3457;939.2626;;;;
2022/01/07 06:49:49;;;;;;;25.3;13;;;;;;;-5.4;88.91992;939.2667;;;;
2022/01/07 06:52:16;;;;;;;14;7.5;;;;;;;-5.43;88.95996;939.2816;;;;
2022/01/07 06:54:41;;;;;;;9.8;5.7;;;;;;;-5.61;88.85352;939.2903;;;;
2022/01/07 06:57:08;;;;;;;9.4;5.7;;;;;;;-5.71;89.2041;939.324;;;;
2022/01/07 06:59:33;;;;;;;8;4.8;;;;;;;-5.72;89.54492;939.3832;;;;
2022/01/07 07:02:01;;;;;;;10.2;5.1;;;;;;;-5.69;89.58301;939.3792;;;;
2022/01/07 07:04:28;;;;;;;6.1;4.4;;;;;;;-5.64;89.47461;939.4135;;;;
2022/01/07 07:06:55;;;;;;;6.2;4.2;;;;;;;-5.54;89.08887;939.4548;;;;
2022/01/07 07:09:20;;;;;;;13.6;5.1;;;;;;;-5.59;88.94531;939.3981;;;;
2022/01/07 07:11:48;;;;;;;11.6;4.6;;;;;;;-5.5;89.25;939.2825;;;;
2022/01/07 07:14:13;;;;;;;8.8;5.5;;;;;;;-5.39;89.01172;939.3455;;;;
2022/01/07 07:16:47;;;;;;;7.1;4.4;;;;;;;-5.38;88.78223;939.3622;;;;
2022/01/07 07:19:15;;;;;;;7.1;5;;;;;;;-5.32;88.57422;939.3806;;;;
2022/01/07 07:21:47;;;;;;;6.1;4.2;;;;;;;-5.36;88.55566;939.3052;;;;
2022/01/07 07:24:17;;;;;;;7;4.7;;;;;;;-5.39;88.72559;939.3856;;;;
2022/01/07 07:26:42;;;;;;;6.8;4.4;;;;;;;-5.18;88.69141;939.3473;;;;
2022/01/07 07:29:11;;;;;;;6.7;4.1;;;;;;;-5.09;88.62402;939.325;;;;
2022/01/07 07:31:39;;;;;;;7;3.6;;;;;;;-5.06;88.31055;939.2701;;;;
2022/01/07 07:34:20;;;;;;;7.2;3.8;;;;;;;-4.84;87.56543;939.2428;;;;
2022/01/07 07:36:31;;;;;;;8.7;4.4;;;;;;;-4.9;87.43164;939.2639;;;;
2022/01/07 07:38:52;;;;;;;6.1;3.6;;;;;;;-4.93;87.87695;939.0876;;;;
2022/01/07 07:41:18;;;;;;;9.2;4.9;;;;;;;-4.84;87.88477;939.2614;;;;
2022/01/07 07:43:44;;;;;;;13.1;6;;;;;;;-4.84;87.67578;939.3136;;;;
2022/01/07 07:46:10;;;;;;;12.8;6.7;;;;;;;-4.76;87.51465;939.2731;;;;
2022/01/07 07:48:35;;;;;;;12.5;6.3;;;;;;;-4.69;87.59375;939.2567;;;;
2022/01/07 07:51:05;;;;;;;10.8;5.9;;;;;;;-4.44;87.39355;939.2854;;;;
2022/01/07 07:53:30;;;;;;;15;7;;;;;;;-4.19;86.46484;939.2433;;;;
2022/01/07 07:56:00;;;;;;;12.6;6.7;;;;;;;-4.19;85.7041;939.2526;;;;
2022/01/07 07:58:27;;;;;;;17.8;8.2;;;;;;;-4.17;85.83105;939.2551;;;;
2022/01/07 08:00:53;;;;;;;13.7;7.3;;;;;;;-4.15;86.35352;939.2459;;;;
2022/01/07 08:03:18;;;;;;;13.9;6.6;;;;;;;-3.99;86.33105;939.1889;;;;
2022/01/07 08:05:44;;;;;;;13.7;7.7;;;;;;;-3.39;84.83008;939.1462;;;;
2022/01/07 08:08:12;;;;;;;11.1;6.3;;;;;;;-2.86;82.52637;939.1551;;;;
2022/01/07 08:10:45;;;;;;;10.6;5.8;;;;;;;-2.16;79.44043;939.1212;;;;
2022/01/07 08:13:27;;;;;;;9.2;5.2;;;;;;;-1.75;77.41895;939.0269;;;;
2022/01/07 08:17:59;;;;;;;5.9;4.2;;;;;;;0.11;67.95801;938.968;;;;
2022/01/07 08:20:24;;;;;;;8.7;6;;;;;;;-0.48;69.69727;938.9342;;;;
2022/01/07 08:22:52;;;;;;;7.6;4.7;;;;;;;-1.25;72.05859;938.9608;;;;
2022/01/07 08:25:17;;;;;;;7.6;4.5;;;;;;;-0.24;70.42773;938.8836;;;;
2022/01/07 08:27:45;;;;;;;12.8;6.2;;;;;;;-0.49;69.44043;938.9824;;;;
2022/01/07 08:30:15;;;;;;;11.6;6.5;;;;;;;-0.9;73.03027;938.9442;;;;
2022/01/07 08:35:03;;;;;;;9.8;4.9;;;;;;;-1.03;73.65137;938.9706;;;;
2022/01/07 08:37:25;;;;;;;6.7;5.1;;;;;;;-0.65;72.91797;938.9722;;;;
2022/01/07 08:39:53;;;;;;;7.2;4.9;;;;;;;0.22;70.01465;938.9691;;;;
2022/01/07 08:42:16;;;;;;;9.6;5.9;;;;;;;0.09;67.875;939.0578;;;;
2022/01/07 08:44:43;;;;;;;10;5.8;;;;;;;0.45;68.54688;939.0673;;;;
2022/01/07 08:47:08;;;;;;;12.1;6.6;;;;;;;1.09;67.6123;939.0433;;;;
2022/01/07 08:49:34;;;;;;;10.1;4.8;;;;;;;0.97;64.84668;938.995;;;;
2022/01/07 08:51:59;;;;;;;10.9;5.6;;;;;;;1.22;64.66016;939.0048;;;;
2022/01/07 08:54:25;;;;;;;1.8;1.7;;;;;;;0.76;64.16797;938.9728;;;;
2022/01/07 08:56:50;;;;;;;1.8;1.4;;;;;;;0.36;65.27832;939.0111;;;;
2022/01/07 08:59:17;;;;;;;7.3;4.6;;;;;;;0.22;66.44824;938.9964;;;;
2022/01/07 09:01:42;;;;;;;3.4;2;;;;;;;0.06;66.7793;938.9756;;;;
2022/01/07 09:04:09;;;;;;;2.6;2.2;;;;;;;-0.14;67.9834;938.9636;;;;
2022/01/07 09:06:34;;;;;;;10.4;5.1;;;;;;;-0.69;69.27246;939.0333;;;;
2022/01/07 09:09:01;;;;;;;8;3.2;;;;;;;-1.04;69.18457;939.056;;;;
2022/01/07 09:11:27;;;;;;;9.7;4.6;;;;;;;-1.12;70.11523;939.0657;;;;
2022/01/07 09:13:53;;;;;;;6;3;;;;;;;-0.71;69.52832;938.9255;;;;
2022/01/07 09:16:23;;;;;;;3.6;2.2;;;;;;;-0.52;68.93457;939.0237;;;;
2022/01/07 09:18:46;;;;;;;2.1;1.4;;;;;;;-0.92;68.71289;938.9844;;;;
2022/01/07 09:21:14;;;;;;;1.9;1.6;;;;;;;-0.84;68.81543;939.0181;;;;
2022/01/07 09:23:41;;;;;;;1.5;1.2;;;;;;;-0.88;70.34277;939.0925;;;;
2022/01/07 09:26:04;;;;;;;2.2;1.3;;;;;;;-0.59;70.20215;939.0185;;;;
2022/01/07 09:28:33;;;;;;;3;2.1;;;;;;;-0.75;69.71973;939.0663;;;;
2022/01/07 09:30:58;;;;;;;4.3;2.6;;;;;;;-0.64;69.82813;939.0136;;;;
2022/01/07 09:33:25;;;;;;;2;1.4;;;;;;;-0.57;71.35156;938.9673;;;;
2022/01/07 09:35:51;;;;;;;1.6;1.2;;;;;;;-0.86;70.80371;938.9587;;;;
2022/01/07 09:38:17;;;;;;;2.1;1.2;;;;;;;-0.86;71.9375;938.9047;;;;
2022/01/07 09:40:42;;;;;;;1.9;1.1;;;;;;;-0.97;71.83008;938.8475;;;;
2022/01/07 09:43:09;;;;;;;1.5;1.1;;;;;;;-0.82;72.43262;938.6983;;;;
2022/01/07 09:45:34;;;;;;;2.4;1.3;;;;;;;-0.72;68.95703;938.7581;;;;
2022/01/07 09:48:01;;;;;;;2.7;1.4;;;;;;;-0.44;70.2832;938.6806;;;;
2022/01/07 09:50:25;;;;;;;1.1;1;;;;;;;-0.03;69.11523;938.6436;;;;
2022/01/07 09:52:51;;;;;;;1.5;1.1;;;;;;;-0.01;69.12891;938.6261;;;;
2022/01/07 09:55:16;;;;;;;2.5;1.4;;;;;;;0.17;68.34473;938.6172;;;;
2022/01/07 09:57:42;;;;;;;2.6;1.6;;;;;;;-0.14;67.64941;938.5532;;;;
2022/01/07 10:00:07;;;;;;;1.8;1.5;;;;;;;0.02;69.44531;938.5172;;;;
2022/01/07 10:02:33;;;;;;;2.7;1.3;;;;;;;0.38;69.5498;938.4073;;;;
2022/01/07 10:04:59;;;;;;;2.3;1.5;;;;;;;0.37;67.49609;938.4036;;;;
2022/01/07 10:07:24;;;;;;;3.4;1.9;;;;;;;0.42;65.49805;938.4355;;;;
2022/01/07 10:09:49;;;;;;;2.9;1.6;;;;;;;0.13;63.36914;938.3867;;;;
2022/01/07 10:12:17;;;;;;;5;1.2;;;;;;;0.19;63.40039;938.3869;;;;
2022/01/07 10:14:42;;;;;;;8;2.3;;;;;;;0.17;63.54199;938.3337;;;;
2022/01/07 10:17:07;;;;;;;5.3;1.8;;;;;;;0.35;62.4209;938.312;;;;
2022/01/07 10:19:36;;;;;;;4.6;1.2;;;;;;;0.33;61.4375;938.2742;;;;
2022/01/07 10:22:01;;;;;;;12.1;2;;;;;;;0.32;62.48438;938.1585;;;;
2022/01/07 10:24:27;;;;;;;11.6;1.7;;;;;;;0.56;61.95117;938.1649;;;;
2022/01/07 10:26:52;;;;;;;4.6;1.3;;;;;;;0.53;62.00195;938.1553;;;;
2022/01/07 10:29:17;;;;;;;5.2;2;;;;;;;0.61;64.71289;938.1287;;;;
2022/01/07 10:31:44;;;;;;;9.8;2.3;;;;;;;0.74;63.59473;938.0414;;;;
2022/01/07 10:34:10;;;;;;;12.4;2.6;;;;;;;1.01;64.84082;938.0164;;;;
2022/01/07 10:36:35;;;;;;;4.4;1.9;;;;;;;0.78;64.00293;938.0094;;;;
2022/01/07 10:39:04;;;;;;;5.2;1.6;;;;;;;0.82;64.37793;938.0033;;;;
2022/01/07 10:41:26;;;;;;;5.9;1.5;;;;;;;0.45;65.10059;938.0121;;;;
2022/01/07 10:43:53;;;;;;;4.7;2.2;;;;;;;0.66;65.63477;937.9734;;;;
2022/01/07 10:46:19;;;;;;;5.8;1.8;;;;;;;0.93;64.61621;937.9138;;;;
2022/01/07 10:48:46;;;;;;;7.2;1.9;;;;;;;0.63;66.02148;937.8711;;;;
2022/01/07 10:51:08;;;;;;;8.2;2;;;;;;;0.67;66.11719;937.9108;;;;
2022/01/07 10:53:34;;;;;;;5.7;1.6;;;;;;;0.59;66.87402;937.8589;;;;
2022/01/07 10:55:59;;;;;;;3.3;2;;;;;;;0.89;66.69824;937.8269;;;;
2022/01/07 10:58:26;;;;;;;3.2;1.6;;;;;;;0.88;66.3623;937.7894;;;;
2022/01/07 11:00:51;;;;;;;10.2;2.5;;;;;;;0.72;65.87891;937.8611;;;;
2022/01/07 11:03:16;;;;;;;4.3;1.8;;;;;;;0.84;65.42871;937.7836;;;;
2022/01/07 11:05:41;;;;;;;5;1.7;;;;;;;0.85;63.91309;937.7711;;;;
2022/01/07 11:08:10;;;;;;;6;3.4;;;;;;;1.13;64.23535;937.6566;;;;
2022/01/07 11:10:36;;;;;;;5.8;2.7;;;;;;;1.05;63.25195;937.7575;;;;
2022/01/07 11:13:04;;;;;;;5.6;2.4;;;;;;;1.05;63.58594;937.7173;;;;
2022/01/07 11:15:29;;;;;;;5.3;2.4;;;;;;;0.84;63.47559;937.6685;;;;
2022/01/07 11:17:58;;;;;;;4.2;2;;;;;;;0.74;62.73535;937.6104;;;;
2022/01/07 11:20:30;;;;;;;10.6;3.3;;;;;;;1.18;62.4541;937.5071;;;;
2022/01/07 11:22:59;;;;;;;8.8;2.4;;;;;;;1.07;61.23242;937.5301;;;;
2022/01/07 11:25:24;;;;;;;19.2;3.6;;;;;;;1.46;62.35059;937.5399;;;;
2022/01/07 11:27:54;;;;;;;4.8;1.9;;;;;;;1.27;59.94238;937.5209;;;;
2022/01/07 11:30:19;;;;;;;4.9;1.8;;;;;;;1.21;59.29688;937.4507;;;;
2022/01/07 11:32:45;;;;;;;8.1;2.4;;;;;;;1.08;60.97656;937.4348;;;;
2022/01/07 11:35:15;;;;;;;11.3;4.2;;;;;;;1.23;61.5127;937.4227;;;;
2022/01/07 11:37:42;;;;;;;6.5;2.3;;;;;;;1.27;58.18848;937.2996;;;;
2022/01/07 11:40:08;;;;;;;6.9;2.6;;;;;;;1.57;58.92285;937.3053;;;;
2022/01/07 11:42:33;;;;;;;7.6;2.6;;;;;;;2.18;61.24805;937.2639;;;;
2022/01/07 11:44:58;;;;;;;9.6;3.3;;;;;;;2.2;58.51758;937.1978;;;;
2022/01/07 11:47:24;;;;;;;6.3;2.8;;;;;;;2.38;59.2041;937.1203;;;;
2022/01/07 11:49:48;;;;;;;8.4;1.9;;;;;;;2.67;60.0957;937.09;;;;
2022/01/07 11:52:13;;;;;;;4;1.4;;;;;;;2.77;58.46191;937.0432;;;;
2022/01/07 11:54:39;;;;;;;2.9;1.1;;;;;;;2.88;58.30859;936.9428;;;;
2022/01/07 11:57:04;;;;;;;11.4;2.6;;;;;;;2.64;57.08789;937.0747;;;;
2022/01/07 11:59:29;;;;;;;3;1;;;;;;;2.49;56.35059;936.9745;;;;
2022/01/07 12:01:58;;;;;;;3.8;1.6;;;;;;;2.39;55.375;936.9777;;;;
2022/01/07 12:04:26;;;;;;;2.3;1.5;;;;;;;1.99;54.81836;936.9365;;;;
2022/01/07 12:06:49;;;;;;;2.1;1.2;;;;;;;1.65;56.37305;937.0262;;;;
2022/01/07 12:09:16;;;;;;;3;1.5;;;;;;;1.9;57.92871;936.9142;;;;
2022/01/07 12:11:38;;;;;;;3.8;1.7;;;;;;;1.88;58.12598;936.9063;;;;
2022/01/07 12:14:10;;;;;;;13.6;5.7;;;;;;;1.95;60.18555;936.8214;;;;
2022/01/07 12:16:35;;;;;;;3.7;1.6;;;;;;;2.03;57.99023;936.7296;;;;
2022/01/07 12:19:00;;;;;;;5.4;1.6;;;;;;;2.1;58.8623;936.8445;;;;
2022/01/07 12:21:29;;;;;;;2.9;1.7;;;;;;;2.16;58.43457;936.8077;;;;
2022/01/07 12:23:54;;;;;;;1.9;1.2;;;;;;;2.26;57.32813;936.7709;;;;
2022/01/07 12:26:20;;;;;;;5.5;1.7;;;;;;;2.52;58.05859;936.8123;;;;
2022/01/07 12:28:48;;;;;;;7.8;2;;;;;;;2.59;57.5625;936.7173;;;;
2022/01/07 12:31:10;;;;;;;3.3;1.6;;;;;;;2.62;56.99609;936.7495;;;;
2022/01/07 12:33:38;;;;;;;5.7;2;;;;;;;2.79;54.22559;936.7391;;;;
2022/01/07 12:36:01;;;;;;;6.3;1.9;;;;;;;2.73;55.40723;936.7045;;;;
2022/01/07 12:38:26;;;;;;;7.3;3.1;;;;;;;3.17;55.80176;936.634;;;;
2022/01/07 12:40:54;;;;;;;6.7;4.3;;;;;;;3.4;54.62988;936.7453;;;;
2022/01/07 12:43:19;;;;;;;5.6;3;;;;;;;3.37;54.8623;936.7347;;;;
2022/01/07 12:45:45;;;;;;;3.7;1.9;;;;;;;3.07;53.3418;936.7264;;;;
2022/01/07 12:48:13;;;;;;;6.8;2;;;;;;;3.19;55.71484;936.6569;;;;
2022/01/07 12:50:39;;;;;;;6.4;2.4;;;;;;;3.49;55.98926;936.7579;;;;
2022/01/07 12:53:04;;;;;;;6.8;2.7;;;;;;;3.74;55.8877;936.7924;;;;
2022/01/07 12:55:31;;;;;;;7.6;2.9;;;;;;;3.89;56.59277;936.7856;;;;
2022/01/07 12:57:56;;;;;;;4.5;2.5;;;;;;;3.63;55.82813;936.7181;;;;
2022/01/07 13:00:26;;;;;;;5;2.5;;;;;;;3.73;56.70703;936.6953;;;;
2022/01/07 13:02:48;;;;;;;12;2.7;;;;;;;3.82;55.65039;936.5897;;;;
2022/01/07 13:05:18;;;;;;;10.3;2.9;;;;;;;3.55;55.49121;936.5582;;;;
2022/01/07 13:07:44;;;;;;;7;2.2;;;;;;;3.18;57.26074;936.5661;;;;
2022/01/07 13:10:11;;;;;;;8.7;2.8;;;;;;;3.33;57.61816;936.5334;;;;
2022/01/07 13:12:37;;;;;;;7.5;2.8;;;;;;;3.17;57.10254;936.4955;;;;
2022/01/07 13:15:05;;;;;;;6.2;2;;;;;;;2.99;56.19336;936.4498;;;;
2022/01/07 13:17:31;;;;;;;8.1;2.3;;;;;;;2.75;57.0127;936.4749;;;;
2022/01/07 13:19:59;;;;;;;8.3;1.9;;;;;;;2.33;59.00684;936.4994;;;;
2022/01/07 13:22:24;;;;;;;5.3;1.2;;;;;;;2.12;60.53418;936.4355;;;;
2022/01/07 13:24:50;;;;;;;8.6;1.8;;;;;;;2.26;61.11328;936.4411;;;;
2022/01/07 13:27:15;;;;;;;8.9;2.6;;;;;;;2.35;61.67578;936.3461;;;;
2022/01/07 13:29:42;;;;;;;5.3;2.2;;;;;;;2.7;60.6377;936.3953;;;;
2022/01/07 13:32:09;;;;;;;6.7;2.2;;;;;;;2.79;61.45801;936.3229;;;;
2022/01/07 13:34:36;;;;;;;7.4;2.2;;;;;;;2.69;61.81348;936.2653;;;;
2022/01/07 13:37:00;;;;;;;7.1;2.2;;;;;;;2.73;61.65234;936.2778;;;;
2022/01/07 13:39:26;;;;;;;8.6;2.9;;;;;;;2.41;62.72656;936.3235;;;;
2022/01/07 13:41:51;;;;;;;3.1;1.8;;;;;;;2.26;61.05762;936.2344;;;;
2022/01/07 13:44:18;;;;;;;3.5;2.1;;;;;;;2.22;62.31641;936.25;;;;
2022/01/07 13:46:43;;;;;;;7;2.2;;;;;;;2.58;62.60645;936.2117;;;;
2022/01/07 13:49:09;;;;;;;4.4;1.9;;;;;;;2.72;62.20996;936.1036;;;;
2022/01/07 13:51:35;;;;;;;3.6;2.2;;;;;;;3.04;62.125;936.1538;;;;
2022/01/07 13:54:01;;;;;;;6.3;2.7;;;;;;;3.2;61.39453;936.1094;;;;
2022/01/07 13:56:26;;;;;;;7.5;3.8;;;;;;;3.29;60.62207;936.0467;;;;
2022/01/07 13:58:51;;;;;;;16;9.2;;;;;;;3.36;59.14941;936.0553;;;;
2022/01/07 14:01:22;;;;;;;41.3;17.6;;;;;;;3.41;59.78516;936.1319;;;;
2022/01/07 14:03:45;;;;;;;35.2;12.1;;;;;;;3.71;58.41113;936.1088;;;;
2022/01/07 14:06:10;;;;;;;12.6;3.2;;;;;;;3.47;59.47949;936.0803;;;;
2022/01/07 14:08:36;;;;;;;44;17.1;;;;;;;3.54;57.1748;936.0494;;;;
2022/01/07 14:11:03;;;;;;;9.7;3;;;;;;;3.16;58.12402;935.9864;;;;
2022/01/07 14:13:32;;;;;;;50.1;16;;;;;;;3.22;57.60352;935.8784;;;;
2022/01/07 14:16:05;;;;;;;17.1;6.2;;;;;;;3.13;57.71387;935.9655;;;;
2022/01/07 14:18:36;;;;;;;9.8;3.4;;;;;;;2.71;57.79297;935.998;;;;
2022/01/07 14:21:00;;;;;;;131.2;71.6;;;;;;;2.55;58.8457;935.9589;;;;
2022/01/07 14:23:26;;;;;;;73.2;40.6;;;;;;;2.61;58.63184;935.89;;;;
2022/01/07 14:25:51;;;;;;;14.9;5.5;;;;;;;2.61;58.96777;935.9095;;;;
2022/01/07 14:28:17;;;;;;;43;14.6;;;;;;;2.46;60.21191;935.8805;;;;
2022/01/07 14:30:42;;;;;;;15.8;6;;;;;;;2.49;61.01172;935.8689;;;;
2022/01/07 14:33:08;;;;;;;37.9;13;;;;;;;2.63;62.0957;935.9534;;;;
2022/01/07 14:35:34;;;;;;;34.6;12.8;;;;;;;2.57;62.99707;935.9764;;;;
2022/01/07 14:38:01;;;;;;;15.5;5.6;;;;;;;2.27;63.33301;935.9369;;;;
2022/01/07 14:40:26;;;;;;;11.4;4;;;;;;;2.09;64.04297;935.9425;;;;
2022/01/07 14:42:52;;;;;;;14.2;6.9;;;;;;;2;64.69141;935.9428;;;;
2022/01/07 14:45:18;;;;;;;16;7.4;;;;;;;1.82;65.91699;935.8773;;;;
2022/01/07 14:47:46;;;;;;;8.5;5.3;;;;;;;1.9;66.25391;935.9384;;;;
2022/01/07 14:50:11;;;;;;;10.6;6.7;;;;;;;1.99;65.99902;935.9238;;;;
2022/01/07 14:52:37;;;;;;;6.4;3.7;;;;;;;2.01;66.15918;935.9648;;;;
2022/01/07 14:55:02;;;;;;;12.1;3.5;;;;;;;2.1;66.99023;935.9855;;;;
2022/01/07 14:57:29;;;;;;;11;4.3;;;;;;;2.1;66.7998;935.9141;;;;
2022/01/07 14:59:54;;;;;;;11.3;3.2;;;;;;;1.96;67.10254;935.94;;;;
2022/01/07 15:02:23;;;;;;;6.4;3.2;;;;;;;1.8;66.5498;935.8566;;;;
2022/01/07 15:04:48;;;;;;;6.1;2.6;;;;;;;1.77;68.0459;935.8664;;;;
2022/01/07 15:07:14;;;;;;;7.7;3.2;;;;;;;1.7;68.16699;935.8267;;;;
2022/01/07 15:09:39;;;;;;;9;3.5;;;;;;;1.73;68.57617;935.8099;;;;
2022/01/07 15:12:06;;;;;;;11.4;4.3;;;;;;;1.64;69.14258;935.7863;;;;
2022/01/07 15:14:31;;;;;;;12;5.8;;;;;;;1.66;69.50391;935.8025;;;;
2022/01/07 15:17:01;;;;;;;17.8;8.9;;;;;;;1.57;69.35449;935.8546;;;;
2022/01/07 15:19:32;;;;;;;8.3;4.2;;;;;;;1.59;70.05176;935.7817;;;;
2022/01/07 15:22:03;;;;;;;15.3;4.5;;;;;;;1.66;70.06445;935.842;;;;
2022/01/07 15:24:33;;;;;;;32.4;17.3;;;;;;;1.68;70.45898;935.8185;;;;
2022/01/07 15:27:04;;;;;;;15.7;8.3;;;;;;;1.77;70.93262;935.8014;;;;
2022/01/07 15:29:30;;;;;;;45.7;25;;;;;;;1.46;72.9043;935.8315;;;;
2022/01/07 15:31:57;;;;;;;25.7;12.3;;;;;;;1.15;73.82031;935.7808;;;;
2022/01/07 15:34:22;;;;;;;21;11.3;;;;;;;1;74.49805;935.9242;;;;
2022/01/07 15:36:47;;;;;;;31.5;15.8;;;;;;;0.93;73.90527;935.9099;;;;
2022/01/07 15:39:13;;;;;;;17.9;8.9;;;;;;;0.99;73.5459;935.93;;;;
2022/01/07 15:41:38;;;;;;;22.1;11.8;;;;;;;1.13;74.27637;935.8759;;;;
2022/01/07 15:44:04;;;;;;;16.5;8.6;;;;;;;1.39;73.63867;935.8887;;;;